Wetterdaten: aktuell Samstag, 17.11.2018 09:30
Datum Zeit Temp. A. Feuchte A. Luftdruck Regen Wind Richtung Richtung Taupunkt Windchill Windben
17.11.2018 09:30 1,4 C 91 % 1030,2 hPa 0,0 l/m 8,0 km/h (2 Bft) O-NO 67 0,1 C -0,2 C 12,9 km/h (3 Bft)
17.11.2018 08:30 -0,2 C 94 % 1030,2 hPa 0,0 l/m 3,2 km/h (1 Bft) O-NO 67 -1,0 C -0,2 C 6,4 km/h (2 Bft)
17.11.2018 07:30 -1,7 C 94 % 1029,8 hPa 0,0 l/m 4,8 km/h (1 Bft) NO 45 -2,5 C -1,7 C 4,8 km/h (1 Bft)
17.11.2018 06:30 -3,4 C 93 % 1029,4 hPa 0,0 l/m 1,6 km/h (1 Bft) N-NO 22 -4,4 C -3,4 C 3,2 km/h (1 Bft)
17.11.2018 05:30 -3,8 C 94 % 1029,4 hPa 0,0 l/m 0,0 km/h (0 Bft) N 0 -4,6 C -3,8 C 0,0 km/h (0 Bft)
17.11.2018 04:30 -3,3 C 93 % 1029,5 hPa 0,0 l/m 0,0 km/h (0 Bft) N 0 -4,3 C -3,3 C 0,0 km/h (0 Bft)
17.11.2018 03:30 -3,0 C 94 % 1029,8 hPa 0,0 l/m 0,0 km/h (0 Bft) N 0 -3,8 C -3,0 C 0,0 km/h (0 Bft)
17.11.2018 02:30 -2,6 C 93 % 1029,8 hPa 0,0 l/m 0,0 km/h (0 Bft) N 0 -3,6 C -2,6 C 0,0 km/h (0 Bft)
17.11.2018 01:30 -2,1 C 93 % 1029,9 hPa 0,0 l/m 0,0 km/h (0 Bft) NW 315 -3,1 C -2,1 C 1,6 km/h (1 Bft)
17.11.2018 00:30 -1,2 C 92 % 1029,8 hPa 0,0 l/m 1,6 km/h (1 Bft) W-NW 292 -2,3 C -1,2 C 1,6 km/h (1 Bft)
16.11.2018 23:30 -0,3 C 91 % 1030,0 hPa 0,0 l/m 0,0 km/h (0 Bft) O-NO 67 -1,6 C -0,3 C 1,6 km/h (1 Bft)
16.11.2018 22:30 0,8 C 92 % 1030,1 hPa 0,0 l/m 1,6 km/h (1 Bft) O-NO 67 -0,3 C 0,8 C 1,6 km/h (1 Bft)
16.11.2018 21:30 -0,2 C 93 % 1030,3 hPa 0,0 l/m 0,0 km/h (0 Bft) N 0 -1,2 C -0,2 C 0,0 km/h (0 Bft)
16.11.2018 20:30 -1,0 C 93 % 1030,5 hPa 0,0 l/m 0,0 km/h (0 Bft) N 0 -2,0 C -1,0 C 0,0 km/h (0 Bft)
16.11.2018 19:30 -1,2 C 93 % 1030,5 hPa 0,0 l/m 0,0 km/h (0 Bft) N 0 -2,2 C -1,2 C 0,0 km/h (0 Bft)
16.11.2018 18:30 -1,1 C 92 % 1030,6 hPa 0,0 l/m 1,6 km/h (1 Bft) W 270 -2,2 C -1,1 C 3,2 km/h (1 Bft)
16.11.2018 17:30 0,5 C 91 % 1030,5 hPa 0,0 l/m 0,0 km/h (0 Bft) N 0 -0,8 C 0,5 C 0,0 km/h (0 Bft)
16.11.2018 16:30 2,1 C 89 % 1030,6 hPa 0,0 l/m 0,0 km/h (0 Bft) N 0 0,5 C 2,1 C 0,0 km/h (0 Bft)
16.11.2018 15:30 4,5 C 83 % 1030,6 hPa 0,0 l/m 1,6 km/h (1 Bft) O-NO 67 1,9 C 4,5 C 3,2 km/h (1 Bft)
16.11.2018 14:30 4,4 C 82 % 1031,0 hPa 0,0 l/m 6,4 km/h (2 Bft) NO 45 1,6 C 4,4 C 14,5 km/h (3 Bft)
16.11.2018 13:30 3,9 C 84 % 1031,4 hPa 0,0 l/m 16,1 km/h (3 Bft) NO 45 1,4 C -2,8 C 20,9 km/h (4 Bft)
16.11.2018 12:30 3,3 C 86 % 1031,7 hPa 0,0 l/m 17,7 km/h (3 Bft) NO 45 1,2 C -4,3 C 22,5 km/h (4 Bft)
16.11.2018 11:30 2,9 C 89 % 1031,9 hPa 0,0 l/m 8,0 km/h (2 Bft) O-NO 67 1,3 C 1,4 C 16,1 km/h (3 Bft)
16.11.2018 10:30 2,6 C 90 % 1032,0 hPa 0,0 l/m 14,5 km/h (3 Bft) NO 45 1,1 C -3,5 C 20,9 km/h (4 Bft)
16.11.2018 10:00 2,4 C 90 % 1032,1 hPa 0,0 l/m 6,4 km/h (2 Bft) O-NO 67 0,9 C 2,4 C 9,7 km/h (2 Bft)
_ Min-Zeit 05:14 14:25 05:55 - 15:41 - - 05:14 12:38 15:56
Minimum _ -5,1 C 81 % 1029,1 hPa - 0,0 km/h (0 Bft) - - -6,2 C -5,7 C 0,0 km/h (0 Bft)
_ Max-Zeit 14:21 08:22 10:44 10:00 12:38 - - 14:23 14:12 12:36
Maximum _ 4,9 C 95 % 1032,2 hPa 0,0 l/m 20,9 km/h
NO (4 Bft)
- - 2,2 C 4,6 C 29,0 km/h
NO (5 Bft)
Durchschnitt _ 0,2 C 91 % 1030,5 hPa #0,0 l/m 3,4 km/h (1 Bft) NO - -1,2 C -0,5 C 5,6 km/h (1 Bft)